createdAt,value
2023-05-22T00:00:52.883Z,18.83
2023-05-22T00:03:24.539Z,18.06
2023-05-22T00:05:53.299Z,17.94
2023-05-22T00:08:21.128Z,18.25
2023-05-22T00:10:48.819Z,18.35
2023-05-22T00:13:16.801Z,18.11
2023-05-22T00:15:44.533Z,18.16
2023-05-22T00:18:13.587Z,18.08
2023-05-22T00:20:42.785Z,17.90
2023-05-22T00:23:12.586Z,18.35
2023-05-22T00:25:41.703Z,18.15
2023-05-22T00:28:09.836Z,18.00
2023-05-22T00:30:38.010Z,18.10
2023-05-22T00:33:06.378Z,17.90
2023-05-22T00:35:34.398Z,17.61
2023-05-22T00:38:03.951Z,17.78
2023-05-22T00:40:31.770Z,17.78
2023-05-22T00:42:59.531Z,17.96
2023-05-22T00:45:28.546Z,17.83
2023-05-22T00:47:56.631Z,17.54
2023-05-22T00:50:24.596Z,17.95
2023-05-22T00:52:52.347Z,17.82
2023-05-22T00:55:21.525Z,17.85
2023-05-22T00:57:50.000Z,17.72
2023-05-22T01:00:18.223Z,18.21
2023-05-22T01:02:46.486Z,18.08
2023-05-22T01:05:18.398Z,17.67
2023-05-22T01:07:46.684Z,17.67
2023-05-22T01:10:17.685Z,17.74
2023-05-22T01:12:48.948Z,18.01
2023-05-22T01:15:20.119Z,17.13
2023-05-22T01:17:48.548Z,17.39
2023-05-22T01:20:18.402Z,17.84
2023-05-22T01:22:58.476Z,17.49
2023-05-22T01:25:34.621Z,17.65
2023-05-22T01:28:07.427Z,17.66
2023-05-22T01:30:41.074Z,17.37
2023-05-22T01:33:09.163Z,17.55
2023-05-22T01:35:37.054Z,17.60
2023-05-22T01:38:04.944Z,17.85
2023-05-22T01:40:32.725Z,17.78
2023-05-22T01:43:00.604Z,17.80
2023-05-22T01:45:28.422Z,17.80
2023-05-22T01:47:57.593Z,17.72
2023-05-22T01:50:26.659Z,17.37
2023-05-22T01:52:55.332Z,17.88
2023-05-22T01:55:27.570Z,17.60
2023-05-22T01:57:57.175Z,17.60
2023-05-22T02:00:25.148Z,17.58
2023-05-22T02:02:54.870Z,17.36
2023-05-22T02:05:24.410Z,17.21
2023-05-22T02:07:52.192Z,17.24
2023-05-22T02:10:19.986Z,17.63
2023-05-22T02:12:47.732Z,17.79
2023-05-22T02:15:16.377Z,17.29
2023-05-22T02:17:45.587Z,17.53
2023-05-22T02:20:15.673Z,17.80
2023-05-22T02:22:47.899Z,17.55
2023-05-22T02:25:17.285Z,16.74
2023-05-22T02:27:46.767Z,16.98
2023-05-22T02:30:15.409Z,17.03
2023-05-22T02:32:45.172Z,16.93
2023-05-22T02:35:13.116Z,17.10
2023-05-22T02:37:41.170Z,17.33
2023-05-22T02:40:11.753Z,17.36
2023-05-22T02:42:40.210Z,17.13
2023-05-22T02:45:08.874Z,17.17
2023-05-22T02:47:37.312Z,16.96
2023-05-22T02:50:05.311Z,17.04
2023-05-22T02:52:35.250Z,16.53
2023-05-22T02:55:03.066Z,16.43
2023-05-22T02:57:32.213Z,16.75
2023-05-22T03:00:01.606Z,16.58
2023-05-22T03:02:30.195Z,16.50
2023-05-22T03:04:59.659Z,16.23
2023-05-22T03:07:29.726Z,16.41
2023-05-22T03:09:57.830Z,16.85
2023-05-22T03:12:25.628Z,16.84
2023-05-22T03:14:55.089Z,16.63
2023-05-22T03:17:23.271Z,16.78
2023-05-22T03:19:51.379Z,16.74
2023-05-22T03:22:19.571Z,16.74
2023-05-22T03:24:47.478Z,16.64
2023-05-22T03:27:16.139Z,16.70
2023-05-22T03:29:44.511Z,16.78
2023-05-22T03:32:13.885Z,16.72
2023-05-22T03:34:41.905Z,16.66
2023-05-22T03:37:11.502Z,16.69
2023-05-22T03:39:39.684Z,16.60
2023-05-22T03:42:22.765Z,16.73
2023-05-22T03:44:50.672Z,16.64
2023-05-22T03:47:20.994Z,16.74
2023-05-22T03:49:48.796Z,16.55
2023-05-22T03:52:16.895Z,16.60
2023-05-22T03:54:44.697Z,16.45
2023-05-22T03:57:12.478Z,16.42
2023-05-22T03:59:40.325Z,16.34
2023-05-22T04:02:08.105Z,16.38
2023-05-22T04:04:38.673Z,16.41
2023-05-22T04:07:08.465Z,16.36
2023-05-22T04:09:36.642Z,16.32
2023-05-22T04:12:04.755Z,16.26
2023-05-22T04:14:32.776Z,16.30
2023-05-22T04:17:00.562Z,16.25
2023-05-22T04:19:30.289Z,16.27
2023-05-22T04:22:02.698Z,16.23
2023-05-22T04:24:30.517Z,16.29
2023-05-22T04:27:03.575Z,16.39
2023-05-22T04:29:31.337Z,16.40
2023-05-22T04:32:00.341Z,16.54
2023-05-22T04:34:30.264Z,16.41
2023-05-22T04:37:00.219Z,16.52
2023-05-22T04:39:29.429Z,16.48
2023-05-22T04:42:05.785Z,16.50
2023-05-22T04:44:34.358Z,16.59
2023-05-22T04:47:02.371Z,16.55
2023-05-22T04:49:30.314Z,16.70
2023-05-22T04:51:58.523Z,16.69
2023-05-22T04:54:30.544Z,16.64
2023-05-22T04:57:05.702Z,16.81
2023-05-22T04:59:33.597Z,16.81
2023-05-22T05:02:02.352Z,16.96
2023-05-22T05:04:30.810Z,17.01
2023-05-22T05:07:02.349Z,17.23
2023-05-22T05:09:32.942Z,17.15
2023-05-22T05:12:01.938Z,17.08
2023-05-22T05:14:33.719Z,17.29
2023-05-22T05:17:02.905Z,17.32
2023-05-22T05:19:30.792Z,17.47
2023-05-22T05:21:58.586Z,17.58
2023-05-22T05:24:26.342Z,17.48
2023-05-22T05:26:55.825Z,17.60
2023-05-22T05:29:23.590Z,17.66
2023-05-22T05:32:05.984Z,17.73
2023-05-22T05:34:47.193Z,17.75
2023-05-22T05:37:37.932Z,17.69
2023-05-22T05:40:07.898Z,17.92
2023-05-22T05:42:38.746Z,17.92
2023-05-22T05:45:09.813Z,18.02
2023-05-22T05:47:37.747Z,18.15
2023-05-22T05:50:06.368Z,18.26
2023-05-22T05:52:35.561Z,18.26
2023-05-22T05:55:09.596Z,18.36
2023-05-22T05:57:38.802Z,18.38
2023-05-22T06:00:11.497Z,18.57
2023-05-22T06:02:41.962Z,18.75
2023-05-22T06:05:23.222Z,18.86
2023-05-22T06:07:58.254Z,19.01
2023-05-22T06:10:26.461Z,19.17
2023-05-22T06:13:13.475Z,19.28
2023-05-22T06:15:41.690Z,19.57
2023-05-22T06:18:18.912Z,19.71
2023-05-22T06:20:47.480Z,19.98
2023-05-22T06:23:15.235Z,19.77
2023-05-22T06:25:43.629Z,19.90
2023-05-22T06:28:12.952Z,19.98
2023-05-22T06:30:40.731Z,19.85
2023-05-22T06:33:14.669Z,20.05
2023-05-22T06:35:43.350Z,20.08
2023-05-22T06:38:11.294Z,20.20
2023-05-22T06:40:48.689Z,20.17
2023-05-22T06:43:26.633Z,20.34
2023-05-22T06:46:13.179Z,20.51
2023-05-22T06:48:52.204Z,20.73
2023-05-22T06:51:27.597Z,20.72
2023-05-22T06:54:07.190Z,20.94
2023-05-22T06:56:37.098Z,21.04
2023-05-22T06:59:09.330Z,21.17
2023-05-22T07:01:55.875Z,21.39
2023-05-22T07:04:46.483Z,21.34
2023-05-22T07:07:19.440Z,21.54
2023-05-22T07:09:47.630Z,21.47
2023-05-22T07:12:16.293Z,21.32
2023-05-22T07:14:46.742Z,21.18
2023-05-22T07:17:14.639Z,21.34
2023-05-22T07:19:45.583Z,21.34
2023-05-22T07:22:13.334Z,21.39
2023-05-22T07:24:45.107Z,21.57
2023-05-22T07:27:12.919Z,21.85
2023-05-22T07:29:42.041Z,21.94
2023-05-22T07:32:11.521Z,21.93
2023-05-22T07:34:39.681Z,22.10
2023-05-22T07:37:09.146Z,22.24
2023-05-22T07:39:37.240Z,22.29
2023-05-22T07:42:06.981Z,22.31
2023-05-22T07:44:40.881Z,22.26
2023-05-22T07:47:09.095Z,22.25
2023-05-22T07:49:38.525Z,22.45
2023-05-22T07:52:07.477Z,22.44
2023-05-22T07:54:35.484Z,22.48
2023-05-22T07:57:03.819Z,22.73
2023-05-22T07:59:37.820Z,22.86
2023-05-22T08:02:05.801Z,22.73
2023-05-22T08:04:33.813Z,22.93
2023-05-22T08:07:03.397Z,23.10
2023-05-22T08:09:31.236Z,23.17
2023-05-22T08:11:59.082Z,23.37
2023-05-22T08:14:26.978Z,23.49
2023-05-22T08:16:55.005Z,23.67
2023-05-22T08:19:23.313Z,23.58
2023-05-22T08:21:52.978Z,23.59
2023-05-22T08:24:22.620Z,23.50
2023-05-22T08:26:50.675Z,23.55
2023-05-22T08:29:18.920Z,23.81
2023-05-22T08:31:46.909Z,24.06
2023-05-22T08:34:14.942Z,23.84
2023-05-22T08:36:42.893Z,23.85
2023-05-22T08:39:14.518Z,24.03
2023-05-22T08:41:47.756Z,23.89
2023-05-22T08:44:15.707Z,23.70
2023-05-22T08:46:44.334Z,23.56
2023-05-22T08:49:12.382Z,23.45
2023-05-22T08:51:40.414Z,23.35
2023-05-22T08:54:08.486Z,23.66
2023-05-22T08:56:39.879Z,23.63
2023-05-22T08:59:15.187Z,23.89
2023-05-22T09:01:44.460Z,23.88
2023-05-22T09:04:12.453Z,23.98
2023-05-22T09:06:40.487Z,24.09
2023-05-22T09:09:08.329Z,24.22
2023-05-22T09:11:36.759Z,24.47
2023-05-22T09:14:07.987Z,24.66
2023-05-22T09:16:37.169Z,24.66
2023-05-22T09:19:05.030Z,24.70
2023-05-22T09:21:32.956Z,24.92
2023-05-22T09:24:01.181Z,24.85
2023-05-22T09:26:29.058Z,24.72
2023-05-22T09:28:57.147Z,24.92
2023-05-22T09:31:24.868Z,24.80
2023-05-22T09:33:53.960Z,24.85
2023-05-22T09:36:22.233Z,25.08
2023-05-22T09:38:50.316Z,24.99
2023-05-22T09:41:22.286Z,25.16
2023-05-22T09:43:50.884Z,25.15
2023-05-22T09:46:18.902Z,25.24
2023-05-22T09:48:47.380Z,25.29
2023-05-22T09:51:16.675Z,25.28
2023-05-22T09:53:44.926Z,25.14
2023-05-22T09:56:15.981Z,25.05
2023-05-22T09:58:47.764Z,25.13
2023-05-22T10:01:17.143Z,25.33
2023-05-22T10:03:47.287Z,25.19
2023-05-22T10:06:20.518Z,25.22
2023-05-22T10:08:55.773Z,25.41
2023-05-22T10:11:23.831Z,25.55
2023-05-22T10:13:54.789Z,25.59
2023-05-22T10:16:22.626Z,25.55
2023-05-22T10:18:50.879Z,25.30
2023-05-22T10:21:22.844Z,25.97
2023-05-22T10:23:51.924Z,25.96
2023-05-22T10:26:19.936Z,26.00
2023-05-22T10:28:51.511Z,25.89
2023-05-22T10:31:20.086Z,26.01
2023-05-22T10:34:07.501Z,25.95
2023-05-22T10:36:43.628Z,26.14
2023-05-22T10:39:14.789Z,26.34
2023-05-22T10:41:42.718Z,26.25
2023-05-22T10:44:10.525Z,26.33
2023-05-22T10:46:39.555Z,26.49
2023-05-22T10:49:07.539Z,26.07
2023-05-22T10:51:35.508Z,26.21
2023-05-22T10:54:06.449Z,25.99
2023-05-22T10:56:37.012Z,26.43
2023-05-22T10:59:07.372Z,26.36
2023-05-22T11:01:38.190Z,26.17
2023-05-22T11:04:16.065Z,26.04
2023-05-22T11:06:48.983Z,26.51
2023-05-22T11:09:29.634Z,26.25
2023-05-22T11:12:21.002Z,26.26
2023-05-22T11:14:57.728Z,26.02
2023-05-22T11:17:29.457Z,26.03
2023-05-22T11:20:05.928Z,26.21
2023-05-22T11:22:36.062Z,25.93
2023-05-22T11:25:09.687Z,26.37
2023-05-22T11:27:37.626Z,26.65
2023-05-22T11:30:05.776Z,26.68
2023-05-22T11:32:33.588Z,26.74
2023-05-22T11:35:01.554Z,26.66
2023-05-22T11:37:29.355Z,26.61
2023-05-22T11:39:57.741Z,26.54
2023-05-22T11:42:27.157Z,26.96
2023-05-22T11:44:54.895Z,26.56
2023-05-22T11:47:22.884Z,25.98
2023-05-22T11:49:50.748Z,26.07
2023-05-22T11:52:18.470Z,25.77
2023-05-22T11:54:46.548Z,25.84
2023-05-22T11:57:14.508Z,26.00
2023-05-22T11:59:44.492Z,26.19
2023-05-22T12:02:12.628Z,25.77
2023-05-22T12:04:40.499Z,25.91
2023-05-22T12:07:08.579Z,25.66
2023-05-22T12:09:38.788Z,25.12
2023-05-22T12:12:09.092Z,24.93
2023-05-22T12:14:38.086Z,25.27
2023-05-22T12:17:09.596Z,25.52
2023-05-22T12:19:43.695Z,25.62
2023-05-22T12:22:12.598Z,25.42
2023-05-22T12:24:44.253Z,25.60
2023-05-22T12:27:12.474Z,25.21
2023-05-22T12:29:42.531Z,25.14
2023-05-22T12:32:12.503Z,25.13
2023-05-22T12:34:44.204Z,25.13
2023-05-22T12:37:31.197Z,25.43
2023-05-22T12:40:00.392Z,25.20
2023-05-22T12:42:28.364Z,25.50
2023-05-22T12:44:57.225Z,25.61
2023-05-22T12:47:26.625Z,25.39
2023-05-22T12:50:13.812Z,25.24
2023-05-22T12:52:41.860Z,25.28
2023-05-22T12:55:11.107Z,25.21
2023-05-22T12:57:38.885Z,25.31
2023-05-22T13:00:07.552Z,25.52
2023-05-22T13:02:36.878Z,25.64
2023-05-22T13:05:05.056Z,25.72
2023-05-22T13:07:33.030Z,25.70
2023-05-22T13:10:00.913Z,25.94
2023-05-22T13:12:28.848Z,25.86
2023-05-22T13:14:56.799Z,25.86
2023-05-22T13:17:24.664Z,25.70
2023-05-22T13:19:54.031Z,25.71
2023-05-22T13:22:26.775Z,25.55
2023-05-22T13:24:56.364Z,25.35
2023-05-22T13:27:24.837Z,25.46
2023-05-22T13:29:52.745Z,25.92
2023-05-22T13:32:21.810Z,25.93
2023-05-22T13:34:50.784Z,25.84
2023-05-22T13:37:20.041Z,25.30
2023-05-22T13:39:47.991Z,25.14
2023-05-22T13:42:15.860Z,25.16
2023-05-22T13:44:43.670Z,25.51
2023-05-22T13:47:12.006Z,25.57
2023-05-22T13:49:40.040Z,25.23
2023-05-22T13:52:07.996Z,25.43
2023-05-22T13:54:37.328Z,25.54
2023-05-22T13:57:05.242Z,25.63
2023-05-22T13:59:33.343Z,25.66
2023-05-22T14:02:01.359Z,25.44
2023-05-22T14:04:29.315Z,25.26
2023-05-22T14:06:57.311Z,25.55
2023-05-22T14:09:25.060Z,25.73
2023-05-22T14:11:54.292Z,25.84
2023-05-22T14:14:28.159Z,25.98
2023-05-22T14:16:56.164Z,26.05
2023-05-22T14:19:24.643Z,25.96
2023-05-22T14:21:52.640Z,25.85
2023-05-22T14:24:20.494Z,26.12
2023-05-22T14:26:51.675Z,26.11
2023-05-22T14:29:23.244Z,26.11
2023-05-22T14:31:52.002Z,26.11
2023-05-22T14:34:20.256Z,25.92
2023-05-22T14:36:48.409Z,25.92
2023-05-22T14:39:16.407Z,26.22
2023-05-22T14:41:47.181Z,26.22
2023-05-22T14:44:17.401Z,26.47
2023-05-22T14:46:47.780Z,26.41
2023-05-22T14:49:15.617Z,26.51
2023-05-22T14:51:47.658Z,26.55
2023-05-22T14:54:17.688Z,26.59
2023-05-22T14:56:45.712Z,26.68
2023-05-22T14:59:15.919Z,26.60
2023-05-22T15:01:52.455Z,26.69
2023-05-22T15:04:20.720Z,26.55
2023-05-22T15:06:50.805Z,26.67
2023-05-22T15:09:18.766Z,26.66
2023-05-22T15:11:49.295Z,26.50
2023-05-22T15:14:21.597Z,26.39
2023-05-22T15:16:51.044Z,26.53
2023-05-22T15:19:18.889Z,26.27
2023-05-22T15:21:46.769Z,26.08
2023-05-22T15:24:14.628Z,26.08
2023-05-22T15:26:42.425Z,25.95
2023-05-22T15:29:10.276Z,25.68
2023-05-22T15:31:38.117Z,25.88
2023-05-22T15:34:07.272Z,25.96
2023-05-22T15:36:36.538Z,25.86
2023-05-22T15:39:04.431Z,25.86
2023-05-22T15:41:32.407Z,25.75
2023-05-22T15:44:00.256Z,25.72
2023-05-22T15:46:30.796Z,25.56
2023-05-22T15:49:02.931Z,25.31
2023-05-22T15:51:33.085Z,25.20
2023-05-22T15:54:00.861Z,25.24
2023-05-22T15:56:29.334Z,25.17
2023-05-22T15:58:57.375Z,25.48
2023-05-22T16:01:25.164Z,25.51
2023-05-22T16:03:53.032Z,25.57
2023-05-22T16:06:23.155Z,25.49
2023-05-22T16:08:52.312Z,25.47
2023-05-22T16:11:20.102Z,25.50
2023-05-22T16:13:48.055Z,25.58
2023-05-22T16:16:17.394Z,25.58
2023-05-22T16:18:45.232Z,25.79
2023-05-22T16:21:13.065Z,25.82
2023-05-22T16:23:42.982Z,25.83
2023-05-22T16:26:12.152Z,25.98
2023-05-22T16:28:39.967Z,25.93
2023-05-22T16:31:08.087Z,25.85
2023-05-22T16:33:37.622Z,25.83
2023-05-22T16:36:05.880Z,25.81
2023-05-22T16:38:33.730Z,26.00
2023-05-22T16:41:04.902Z,25.92
2023-05-22T16:43:38.305Z,25.80
2023-05-22T16:46:11.571Z,25.74
2023-05-22T16:48:39.453Z,25.80
2023-05-22T16:51:07.280Z,25.51
2023-05-22T16:53:38.654Z,25.73
2023-05-22T16:56:08.882Z,25.45
2023-05-22T16:58:38.162Z,25.28
2023-05-22T17:01:06.754Z,25.22
2023-05-22T17:03:34.825Z,25.26
2023-05-22T17:06:03.605Z,24.99
2023-05-22T17:08:33.400Z,24.84
2023-05-22T17:11:01.297Z,24.72
2023-05-22T17:13:29.300Z,24.52
2023-05-22T17:16:01.097Z,24.49
2023-05-22T17:18:30.498Z,24.55
2023-05-22T17:21:00.339Z,24.37
2023-05-22T17:23:28.009Z,24.20
2023-05-22T17:25:56.161Z,23.78
2023-05-22T17:28:24.065Z,23.80
2023-05-22T17:30:52.158Z,23.76
2023-05-22T17:33:21.441Z,23.37
2023-05-22T17:35:49.374Z,23.00
2023-05-22T17:38:21.954Z,22.66
2023-05-22T17:40:50.798Z,22.69
2023-05-22T17:43:19.247Z,23.21
2023-05-22T17:45:50.133Z,23.56
2023-05-22T17:48:21.682Z,23.88
2023-05-22T17:50:52.079Z,23.80
2023-05-22T17:53:20.846Z,23.55
2023-05-22T17:55:53.233Z,23.26
2023-05-22T17:58:25.885Z,23.11
2023-05-22T18:00:56.423Z,23.19
2023-05-22T18:03:26.766Z,23.15
2023-05-22T18:05:56.685Z,22.93
2023-05-22T18:08:24.710Z,22.71
2023-05-22T18:10:58.382Z,22.60
2023-05-22T18:13:29.225Z,21.98
2023-05-22T18:16:00.617Z,21.27
2023-05-22T18:18:35.038Z,21.45
2023-05-22T18:21:06.805Z,22.03
2023-05-22T18:23:35.136Z,22.10
2023-05-22T18:26:03.637Z,22.29
2023-05-22T18:28:34.230Z,22.42
2023-05-22T18:31:04.807Z,22.35
2023-05-22T18:33:37.518Z,22.23
2023-05-22T18:36:14.107Z,22.13
2023-05-22T18:38:42.489Z,21.65
2023-05-22T18:41:16.678Z,21.26
2023-05-22T18:43:44.549Z,21.14
2023-05-22T18:49:29.879Z,22.23
2023-05-22T18:51:59.264Z,22.04
2023-05-22T18:54:44.483Z,21.87
2023-05-22T18:57:18.940Z,21.83
2023-05-22T18:59:53.337Z,21.65
2023-05-22T19:02:49.423Z,21.34
2023-05-22T19:05:42.319Z,20.87
2023-05-22T19:08:57.354Z,20.65
2023-05-22T19:12:01.806Z,20.65
2023-05-22T19:20:20.910Z,20.44
2023-05-22T19:22:48.756Z,20.27
2023-05-22T19:25:16.568Z,20.15
2023-05-22T19:27:45.264Z,19.87
2023-05-22T19:30:16.958Z,20.14
2023-05-22T19:32:44.637Z,20.54
2023-05-22T19:35:12.471Z,20.49
2023-05-22T19:37:41.893Z,20.17
2023-05-22T19:40:11.196Z,20.26
2023-05-22T19:42:40.937Z,20.17
2023-05-22T19:45:09.200Z,19.94
2023-05-22T19:47:44.395Z,20.39
2023-05-22T19:50:14.725Z,20.18
2023-05-22T19:52:45.982Z,19.16
2023-05-22T19:55:16.172Z,19.94
2023-05-22T19:57:47.535Z,20.09
2023-05-22T20:00:16.953Z,20.11
2023-05-22T20:02:47.940Z,19.88
2023-05-22T20:05:15.908Z,19.63
2023-05-22T20:07:47.190Z,19.06
2023-05-22T20:10:14.836Z,19.54
2023-05-22T20:12:42.454Z,19.64
2023-05-22T20:15:16.107Z,19.68
2023-05-22T20:21:02.462Z,18.95
2023-05-22T20:23:32.161Z,19.31
2023-05-22T20:26:00.496Z,19.82
2023-05-22T20:28:31.046Z,19.32
2023-05-22T20:31:06.216Z,18.56
2023-05-22T20:33:35.067Z,18.93
2023-05-22T20:36:03.343Z,18.84
2023-05-22T20:38:39.490Z,19.16
2023-05-22T20:41:09.830Z,19.00
2023-05-22T20:43:43.412Z,18.60
2023-05-22T20:46:16.213Z,18.39
2023-05-22T20:48:49.644Z,18.34
2023-05-22T20:51:18.716Z,18.73
2023-05-22T20:53:53.523Z,18.85
2023-05-22T20:56:24.548Z,19.25
2023-05-22T20:59:00.242Z,18.81
2023-05-22T21:01:28.731Z,18.27
2023-05-22T21:03:59.420Z,18.24
2023-05-22T21:06:27.757Z,18.08
2023-05-22T21:08:59.914Z,18.27
2023-05-22T21:11:28.995Z,18.25
2023-05-22T21:13:56.771Z,18.31
2023-05-22T21:16:25.242Z,18.30
2023-05-22T21:18:54.851Z,18.13
2023-05-22T21:21:25.474Z,17.95
2023-05-22T21:23:53.249Z,17.73
2023-05-22T21:26:23.155Z,17.79
2023-05-22T21:28:50.975Z,18.08
2023-05-22T21:31:18.557Z,18.48
2023-05-22T21:33:46.367Z,18.70
2023-05-22T21:36:14.018Z,18.65
2023-05-22T21:38:47.566Z,18.24
2023-05-22T21:41:15.926Z,17.87
2023-05-22T21:43:47.925Z,17.89
2023-05-22T21:46:15.692Z,18.00
2023-05-22T21:48:43.327Z,18.05
2023-05-22T21:51:10.923Z,18.35
2023-05-22T21:53:39.594Z,18.41
2023-05-22T21:56:07.449Z,18.14
2023-05-22T21:58:35.045Z,18.07
2023-05-22T22:01:04.125Z,17.08
2023-05-22T22:03:31.739Z,16.94
2023-05-22T22:05:59.638Z,17.12
2023-05-22T22:08:28.326Z,17.29
2023-05-22T22:10:56.093Z,17.67
2023-05-22T22:13:23.689Z,17.49
2023-05-22T22:15:51.375Z,17.77
2023-05-22T22:18:20.523Z,17.67
2023-05-22T22:20:50.412Z,17.63
2023-05-22T22:23:18.178Z,17.74
2023-05-22T22:25:45.899Z,17.56
2023-05-22T22:28:13.485Z,17.32
2023-05-22T22:30:41.247Z,17.47
2023-05-22T22:33:09.200Z,17.88
2023-05-22T22:35:38.288Z,17.42
2023-05-22T22:38:06.017Z,17.26
2023-05-22T22:40:33.624Z,17.33
2023-05-22T22:43:01.227Z,17.10
2023-05-22T22:45:28.864Z,16.78
2023-05-22T22:47:57.260Z,17.22
2023-05-22T22:50:25.434Z,17.58
2023-05-22T22:52:54.390Z,17.65
2023-05-22T22:55:24.733Z,17.47
2023-05-22T22:57:53.499Z,17.51
2023-05-22T23:00:21.146Z,17.42
2023-05-22T23:02:48.841Z,17.17
2023-05-22T23:05:19.995Z,16.88
2023-05-22T23:07:48.139Z,16.83
2023-05-22T23:10:17.075Z,17.13
2023-05-22T23:12:45.042Z,17.06
2023-05-22T23:15:13.586Z,16.92
2023-05-22T23:17:41.470Z,16.94
2023-05-22T23:20:09.900Z,16.55
2023-05-22T23:22:37.585Z,16.61
2023-05-22T23:25:05.647Z,16.36
2023-05-22T23:27:35.006Z,16.13
2023-05-22T23:30:02.592Z,15.97
2023-05-22T23:32:30.266Z,15.98
2023-05-22T23:34:57.942Z,16.19
2023-05-22T23:37:25.662Z,16.32
2023-05-22T23:39:53.349Z,16.25
2023-05-22T23:42:20.895Z,16.38
2023-05-22T23:44:50.017Z,16.33
2023-05-22T23:47:18.795Z,16.25
2023-05-22T23:49:46.447Z,16.38
2023-05-22T23:52:14.399Z,16.41
2023-05-22T23:54:42.205Z,16.23
2023-05-22T23:57:10.528Z,16.22
2023-05-22T23:59:38.198Z,16.42
